Shin-oh Maru — JG5594 — position and weather

sailwx.info

Track history (hours):
 
Tides and Currents Weather Stations Pressure Air Temp Water Temp Dewpoint Dewpoint Depression Visibility Wind Speed Wind Dir Waves Ship Positions

Shin-oh Maru

Last reported at 2016-Feb-08 19:33 UTC. Time now 2016-Feb-09 22:36 UTC.
Position N 35°26' E 140°48'.

Length 161 m; draft 6.8 m.

Type: Ship (hazmat cat A). MMSI: 431100859.

Date/timePositionNaut miles runAvg speedWind from/ knotsBaromVisibWave heightAir tempDewpointWater temp
2016-Feb-08 19:33N 35°26' E 140°48'2019.8
2016-Feb-08 18:32N 35°11' E 140°32'2020.1
2016-Feb-08 17:33N 34°59' E 140°13'2019.9
2016-Feb-08 16:33N 34°52' E 139°50'1717.6
2016-Feb-08 15:34N 35°09' E 139°45'1413.8
2016-Feb-08 14:33N 35°22' E 139°42'1413.7
2016-Feb-08 13:33N 35°35' E 139°47'3 2.7
2016-Feb-08 12:31N 35°38' E 139°46'0 0.0
2016-Feb-08 11:31N 35°38' E 139°46'0 0.0
2016-Feb-08 10:31N 35°38' E 139°46'0 0.0
2016-Feb-08 09:25N 35°38' E 139°46'0 0.0
2016-Feb-08 08:31N 35°38' E 139°46'0 0.0
2016-Feb-08 07:31N 35°38' E 139°46'0 0.0
2016-Feb-08 06:28N 35°38' E 139°46'0 0.0
2016-Feb-08 05:31N 35°38' E 139°46'0 0.0
2016-Feb-08 04:31N 35°38' E 139°46'0 0.0
2016-Feb-08 03:31N 35°38' E 139°46'0 0.0
2016-Feb-08 02:25N 35°38' E 139°46'0 0.0
2016-Feb-08 01:31N 35°38' E 139°46'0 0.0
2016-Feb-08 00:31N 35°38' E 139°46'0 0.0
2016-Feb-07 23:28N 35°38' E 139°46'0 0.0
2016-Feb-07 22:28N 35°38' E 139°46'0 0.0
2016-Feb-07 21:31N 35°38' E 139°46'0 0.0
2016-Feb-07 20:31N 35°38' E 139°46'0 0.0
2016-Feb-07 19:31N 35°38' E 139°46'0 0.0
2016-Feb-07 18:28N 35°38' E 139°46'0 0.0
2016-Feb-07 17:28N 35°38' E 139°46'0 0.0
2016-Feb-07 16:25N 35°38' E 139°46'0 0.0
2016-Feb-07 15:31N 35°38' E 139°46'0 0.0
2016-Feb-07 14:31N 35°38' E 139°46'0 0.0
2016-Feb-07 13:31N 35°38' E 139°46'0 0.0
2016-Feb-07 12:31N 35°38' E 139°46'0 0.0
2016-Feb-07 11:31N 35°38' E 139°46'0 0.0
2016-Feb-07 10:31N 35°38' E 139°46'0 0.0
2016-Feb-07 09:28N 35°38' E 139°46'1 1.2
2016-Feb-07 08:33N 35°37' E 139°46'1212.1
2016-Feb-07 07:33N 35°25' E 139°47'1110.8
2016-Feb-07 06:33N 35°14' E 139°47'1717.5
2016-Feb-07 05:34N 34°57' E 139°44'1614.5
2016-Feb-07 04:28N 34°55' E 140°03'  
2016-Feb-04 22:23N 36°11' E 141°04'1619.3
2016-Feb-04 21:33N 35°55' E 141°02'2419.4
2016-Feb-04 20:18N 35°32' E 140°54'1519.9
2016-Feb-04 19:33N 35°20' E 140°42'2020.1
2016-Feb-04 18:33N 35°05' E 140°26'1919.6
2016-Feb-04 17:33N 34°55' E 140°06'1717.4
2016-Feb-04 16:33N 34°55' E 139°44'1918.6
2016-Feb-04 15:33N 35°13' E 139°46'1312.6
2016-Feb-04 14:34N 35°26' E 139°45'1211.5
2016-Feb-04 13:33N 35°38' E 139°46'0 0.2
2016-Feb-04 12:33N 35°38' E 139°46'0 0.0
2016-Feb-04 11:33N 35°38' E 139°46'0 0.0
2016-Feb-04 10:33N 35°38' E 139°46'0 0.0
2016-Feb-04 09:33N 35°38' E 139°46'0 0.0
2016-Feb-04 08:33N 35°38' E 139°46'8 7.6
2016-Feb-04 07:33N 35°32' E 139°52'1514.8
2016-Feb-04 06:34N 35°19' E 139°44'1414.0
2016-Feb-04 05:33N 35°05' E 139°45'1514.0
2016-Feb-04 04:28N 34°50' E 139°51'1617.9
2016-Feb-04 03:33N 34°56' E 140°09'2617.8
2016-Feb-04 02:07N 35°12' E 140°34'1618.2
2016-Feb-04 01:15N 35°25' E 140°45'  
2016-Feb-01 20:34N 35°40' E 140°56'1918.9
2016-Feb-01 19:33N 35°24' E 140°44'1918.8
2016-Feb-01 18:32N 35°08' E 140°30'1818.3
2016-Feb-01 17:33N 34°58' E 140°13'1918.1
2016-Feb-01 16:32N 34°51' E 139°51'1616.7
2016-Feb-01 15:34N 35°06' E 139°44'1413.9
2016-Feb-01 14:34N 35°20' E 139°43'1515.2
2016-Feb-01 13:34N 35°34' E 139°49'5 4.5
2016-Feb-01 12:33N 35°38' E 139°46'0 0.0
2016-Feb-01 11:21N 35°38' E 139°46'0 0.0
2016-Feb-01 10:33N 35°38' E 139°46'0 0.0
2016-Feb-01 09:33N 35°38' E 139°46'0 0.0
2016-Feb-01 08:33N 35°38' E 139°46'0 0.0
2016-Feb-01 07:33N 35°38' E 139°46'0 0.0
2016-Feb-01 06:33N 35°38' E 139°46'6 6.2
2016-Feb-01 05:33N 35°33' E 139°51'2 2.3
2016-Feb-01 04:33N 35°33' E 139°53'0 0.0
2016-Feb-01 03:27N 35°33' E 139°53'0 0.0
2016-Feb-01 02:33N 35°33' E 139°53'0 0.0
2016-Feb-01 01:33N 35°33' E 139°53'0 0.0
2016-Feb-01 00:33N 35°33' E 139°53'0 0.0
2016-Jan-31 23:33N 35°33' E 139°53'0 0.0
2016-Jan-31 22:33N 35°33' E 139°53'0 0.0
2016-Jan-31 21:33N 35°33' E 139°53'0 0.0
2016-Jan-31 20:33N 35°33' E 139°53'0 0.0
2016-Jan-31 19:24N 35°33' E 139°53'0 0.0
2016-Jan-31 18:33N 35°33' E 139°53'0 0.0
2016-Jan-31 17:27N 35°33' E 139°53'0 0.0
2016-Jan-31 16:33N 35°33' E 139°53'0 0.1
2016-Jan-31 15:33N 35°34' E 139°53'0 0.0
2016-Jan-31 14:33N 35°34' E 139°53'0 0.0
2016-Jan-31 13:33N 35°34' E 139°53'0 0.0
2016-Jan-31 12:33N 35°34' E 139°53'0 0.0
2016-Jan-31 11:33N 35°34' E 139°53'0 0.0
2016-Jan-31 10:33N 35°34' E 139°53'0 0.0
2016-Jan-31 09:33N 35°34' E 139°53'0 0.1
2016-Jan-31 08:33N 35°34' E 139°53'1211.8
2016-Jan-31 07:34N 35°23' E 139°46'1211.6
2016-Jan-31 06:33N 35°12' E 139°47'1818.2
2016-Jan-31 05:33N 34°54' E 139°43'1616.2
2016-Jan-31 04:33N 34°54' E 140°03'2418.4
2016-Jan-31 03:15N 35°07' E 140°28'1717.7
2016-Jan-31 02:15N 35°21' E 140°41'2118.0
2016-Jan-31 01:04N 35°39' E 140°56'  
Track history (hours):
 
Tides and Currents Weather Stations Pressure Air Temp Water Temp Dewpoint Dewpoint Depression Visibility Wind Speed Wind Dir Waves Ship Positions

Shin-oh Maru

Last reported at 2016-Feb-08 19:33 UTC. Time now 2016-Feb-09 22:36 UTC.
Position N 35°26' E 140°48'.

Length 161 m; draft 6.8 m.

Type: Ship (hazmat cat A). MMSI: 431100859.

Date/timePositionNaut miles runAvg speedWind from/ knotsBaromVisibWave heightAir tempDewpointWater temp
2016-Feb-08 19:33N 35°26' E 140°48'2019.8
2016-Feb-08 18:32N 35°11' E 140°32'2020.1
2016-Feb-08 17:33N 34°59' E 140°13'2019.9
2016-Feb-08 16:33N 34°52' E 139°50'1717.6
2016-Feb-08 15:34N 35°09' E 139°45'1413.8
2016-Feb-08 14:33N 35°22' E 139°42'1413.7
2016-Feb-08 13:33N 35°35' E 139°47'3 2.7
2016-Feb-08 12:31N 35°38' E 139°46'0 0.0
2016-Feb-08 11:31N 35°38' E 139°46'0 0.0
2016-Feb-08 10:31N 35°38' E 139°46'0 0.0
2016-Feb-08 09:25N 35°38' E 139°46'0 0.0
2016-Feb-08 08:31N 35°38' E 139°46'0 0.0
2016-Feb-08 07:31N 35°38' E 139°46'0 0.0
2016-Feb-08 06:28N 35°38' E 139°46'0 0.0
2016-Feb-08 05:31N 35°38' E 139°46'0 0.0
2016-Feb-08 04:31N 35°38' E 139°46'0 0.0
2016-Feb-08 03:31N 35°38' E 139°46'0 0.0
2016-Feb-08 02:25N 35°38' E 139°46'0 0.0
2016-Feb-08 01:31N 35°38' E 139°46'0 0.0
2016-Feb-08 00:31N 35°38' E 139°46'0 0.0
2016-Feb-07 23:28N 35°38' E 139°46'0 0.0
2016-Feb-07 22:28N 35°38' E 139°46'0 0.0
2016-Feb-07 21:31N 35°38' E 139°46'0 0.0
2016-Feb-07 20:31N 35°38' E 139°46'0 0.0
2016-Feb-07 19:31N 35°38' E 139°46'0 0.0
2016-Feb-07 18:28N 35°38' E 139°46'0 0.0
2016-Feb-07 17:28N 35°38' E 139°46'0 0.0
2016-Feb-07 16:25N 35°38' E 139°46'0 0.0
2016-Feb-07 15:31N 35°38' E 139°46'0 0.0
2016-Feb-07 14:31N 35°38' E 139°46'0 0.0
2016-Feb-07 13:31N 35°38' E 139°46'0 0.0
2016-Feb-07 12:31N 35°38' E 139°46'0 0.0
2016-Feb-07 11:31N 35°38' E 139°46'0 0.0
2016-Feb-07 10:31N 35°38' E 139°46'0 0.0
2016-Feb-07 09:28N 35°38' E 139°46'1 1.2
2016-Feb-07 08:33N 35°37' E 139°46'1212.1
2016-Feb-07 07:33N 35°25' E 139°47'1110.8
2016-Feb-07 06:33N 35°14' E 139°47'1717.5
2016-Feb-07 05:34N 34°57' E 139°44'1614.5
2016-Feb-07 04:28N 34°55' E 140°03'  
2016-Feb-04 22:23N 36°11' E 141°04'1619.3
2016-Feb-04 21:33N 35°55' E 141°02'2419.4
2016-Feb-04 20:18N 35°32' E 140°54'1519.9
2016-Feb-04 19:33N 35°20' E 140°42'2020.1
2016-Feb-04 18:33N 35°05' E 140°26'1919.6
2016-Feb-04 17:33N 34°55' E 140°06'1717.4
2016-Feb-04 16:33N 34°55' E 139°44'1918.6
2016-Feb-04 15:33N 35°13' E 139°46'1312.6
2016-Feb-04 14:34N 35°26' E 139°45'1211.5
2016-Feb-04 13:33N 35°38' E 139°46'0 0.2
2016-Feb-04 12:33N 35°38' E 139°46'0 0.0
2016-Feb-04 11:33N 35°38' E 139°46'0 0.0
2016-Feb-04 10:33N 35°38' E 139°46'0 0.0
2016-Feb-04 09:33N 35°38' E 139°46'0 0.0
2016-Feb-04 08:33N 35°38' E 139°46'8 7.6
2016-Feb-04 07:33N 35°32' E 139°52'1514.8
2016-Feb-04 06:34N 35°19' E 139°44'1414.0
2016-Feb-04 05:33N 35°05' E 139°45'1514.0
2016-Feb-04 04:28N 34°50' E 139°51'1617.9
2016-Feb-04 03:33N 34°56' E 140°09'2617.8
2016-Feb-04 02:07N 35°12' E 140°34'1618.2
2016-Feb-04 01:15N 35°25' E 140°45'  
2016-Feb-01 20:34N 35°40' E 140°56'1918.9
2016-Feb-01 19:33N 35°24' E 140°44'1918.8
2016-Feb-01 18:32N 35°08' E 140°30'1818.3
2016-Feb-01 17:33N 34°58' E 140°13'1918.1
2016-Feb-01 16:32N 34°51' E 139°51'1616.7
2016-Feb-01 15:34N 35°06' E 139°44'1413.9
2016-Feb-01 14:34N 35°20' E 139°43'1515.2
2016-Feb-01 13:34N 35°34' E 139°49'5 4.5
2016-Feb-01 12:33N 35°38' E 139°46'0 0.0
2016-Feb-01 11:21N 35°38' E 139°46'0 0.0
2016-Feb-01 10:33N 35°38' E 139°46'0 0.0
2016-Feb-01 09:33N 35°38' E 139°46'0 0.0
2016-Feb-01 08:33N 35°38' E 139°46'0 0.0
2016-Feb-01 07:33N 35°38' E 139°46'0 0.0
2016-Feb-01 06:33N 35°38' E 139°46'6 6.2
2016-Feb-01 05:33N 35°33' E 139°51'2 2.3
2016-Feb-01 04:33N 35°33' E 139°53'0 0.0
2016-Feb-01 03:27N 35°33' E 139°53'0 0.0
2016-Feb-01 02:33N 35°33' E 139°53'0 0.0
2016-Feb-01 01:33N 35°33' E 139°53'0 0.0
2016-Feb-01 00:33N 35°33' E 139°53'0 0.0
2016-Jan-31 23:33N 35°33' E 139°53'0 0.0
2016-Jan-31 22:33N 35°33' E 139°53'0 0.0
2016-Jan-31 21:33N 35°33' E 139°53'0 0.0
2016-Jan-31 20:33N 35°33' E 139°53'0 0.0
2016-Jan-31 19:24N 35°33' E 139°53'0 0.0
2016-Jan-31 18:33N 35°33' E 139°53'0 0.0
2016-Jan-31 17:27N 35°33' E 139°53'0 0.0
2016-Jan-31 16:33N 35°33' E 139°53'0 0.1
2016-Jan-31 15:33N 35°34' E 139°53'0 0.0
2016-Jan-31 14:33N 35°34' E 139°53'0 0.0
2016-Jan-31 13:33N 35°34' E 139°53'0 0.0
2016-Jan-31 12:33N 35°34' E 139°53'0 0.0
2016-Jan-31 11:33N 35°34' E 139°53'0 0.0
2016-Jan-31 10:33N 35°34' E 139°53'0 0.0
2016-Jan-31 09:33N 35°34' E 139°53'0 0.1
2016-Jan-31 08:33N 35°34' E 139°53'1211.8
2016-Jan-31 07:34N 35°23' E 139°46'1211.6
2016-Jan-31 06:33N 35°12' E 139°47'1818.2
2016-Jan-31 05:33N 34°54' E 139°43'1616.2
2016-Jan-31 04:33N 34°54' E 140°03'2418.4
2016-Jan-31 03:15N 35°07' E 140°28'1717.7
2016-Jan-31 02:15N 35°21' E 140°41'2118.0
2016-Jan-31 01:04N 35°39' E 140°56'  

Dump ship's entire track history